sensor_id;sensor_type;location;lat;lon;timestamp;temperature;humidity
19945;DHT22;10134;50.952;6.930;2023-07-13T00:02:01;20.80;75.80
19945;DHT22;10134;50.952;6.930;2023-07-13T00:04:28;20.80;76.00
19945;DHT22;10134;50.952;6.930;2023-07-13T00:06:58;20.70;76.10
19945;DHT22;10134;50.952;6.930;2023-07-13T00:09:26;20.80;76.30
19945;DHT22;10134;50.952;6.930;2023-07-13T00:11:56;20.70;76.30
19945;DHT22;10134;50.952;6.930;2023-07-13T00:14:26;20.70;76.40
19945;DHT22;10134;50.952;6.930;2023-07-13T00:16:54;20.70;76.60
19945;DHT22;10134;50.952;6.930;2023-07-13T00:19:21;20.70;76.90
19945;DHT22;10134;50.952;6.930;2023-07-13T00:21:51;20.70;77.00
19945;DHT22;10134;50.952;6.930;2023-07-13T00:24:22;20.70;77.20
19945;DHT22;10134;50.952;6.930;2023-07-13T00:26:51;20.70;77.20
19945;DHT22;10134;50.952;6.930;2023-07-13T00:29:19;20.60;77.30
19945;DHT22;10134;50.952;6.930;2023-07-13T00:31:48;20.60;77.50
19945;DHT22;10134;50.952;6.930;2023-07-13T00:34:16;20.60;78.30
19945;DHT22;10134;50.952;6.930;2023-07-13T00:36:44;20.60;77.70
19945;DHT22;10134;50.952;6.930;2023-07-13T00:39:12;20.60;77.80
19945;DHT22;10134;50.952;6.930;2023-07-13T00:41:40;20.50;77.90
19945;DHT22;10134;50.952;6.930;2023-07-13T00:44:14;20.50;78.10
19945;DHT22;10134;50.952;6.930;2023-07-13T00:46:42;20.50;78.20
19945;DHT22;10134;50.952;6.930;2023-07-13T00:49:16;20.40;78.20
19945;DHT22;10134;50.952;6.930;2023-07-13T00:51:59;20.40;78.40
19945;DHT22;10134;50.952;6.930;2023-07-13T00:54:38;20.40;78.60
19945;DHT22;10134;50.952;6.930;2023-07-13T00:57:12;20.40;78.80
19945;DHT22;10134;50.952;6.930;2023-07-13T00:59:48;20.30;78.90
19945;DHT22;10134;50.952;6.930;2023-07-13T01:02:16;20.30;79.10
19945;DHT22;10134;50.952;6.930;2023-07-13T01:04:44;20.30;79.30
19945;DHT22;10134;50.952;6.930;2023-07-13T01:07:12;20.20;79.40
19945;DHT22;10134;50.952;6.930;2023-07-13T01:09:40;20.20;79.80
19945;DHT22;10134;50.952;6.930;2023-07-13T01:12:08;20.20;80.00
19945;DHT22;10134;50.952;6.930;2023-07-13T01:14:35;20.10;80.10
19945;DHT22;10134;50.952;6.930;2023-07-13T01:17:03;20.10;80.20
19945;DHT22;10134;50.952;6.930;2023-07-13T01:19:43;20.10;80.60
19945;DHT22;10134;50.952;6.930;2023-07-13T01:22:16;20.00;80.60
19945;DHT22;10134;50.952;6.930;2023-07-13T01:24:47;20.00;80.80
19945;DHT22;10134;50.952;6.930;2023-07-13T01:27:19;20.00;80.90
19945;DHT22;10134;50.952;6.930;2023-07-13T01:29:47;20.00;81.10
19945;DHT22;10134;50.952;6.930;2023-07-13T01:32:21;20.00;81.20
19945;DHT22;10134;50.952;6.930;2023-07-13T01:34:54;19.90;81.30
19945;DHT22;10134;50.952;6.930;2023-07-13T01:37:23;19.90;81.50
19945;DHT22;10134;50.952;6.930;2023-07-13T01:39:52;19.90;81.60
19945;DHT22;10134;50.952;6.930;2023-07-13T01:42:19;19.90;81.90
19945;DHT22;10134;50.952;6.930;2023-07-13T01:44:48;19.80;81.90
19945;DHT22;10134;50.952;6.930;2023-07-13T01:47:15;19.80;82.10
19945;DHT22;10134;50.952;6.930;2023-07-13T01:49:42;19.80;82.30
19945;DHT22;10134;50.952;6.930;2023-07-13T01:52:10;19.80;82.50
19945;DHT22;10134;50.952;6.930;2023-07-13T01:54:37;19.80;82.60
19945;DHT22;10134;50.952;6.930;2023-07-13T01:57:04;19.70;82.80
19945;DHT22;10134;50.952;6.930;2023-07-13T01:59:32;19.70;83.00
19945;DHT22;10134;50.952;6.930;2023-07-13T02:02:00;19.60;83.30
19945;DHT22;10134;50.952;6.930;2023-07-13T02:04:28;19.60;83.50
19945;DHT22;10134;50.952;6.930;2023-07-13T02:06:55;19.60;83.70
19945;DHT22;10134;50.952;6.930;2023-07-13T02:09:22;19.60;83.90
19945;DHT22;10134;50.952;6.930;2023-07-13T02:11:50;19.60;84.80
19945;DHT22;10134;50.952;6.930;2023-07-13T02:14:17;19.50;84.20
19945;DHT22;10134;50.952;6.930;2023-07-13T02:16:44;19.50;84.40
19945;DHT22;10134;50.952;6.930;2023-07-13T02:19:12;19.50;84.50
19945;DHT22;10134;50.952;6.930;2023-07-13T02:21:40;19.50;84.60
19945;DHT22;10134;50.952;6.930;2023-07-13T02:24:07;19.50;84.70
19945;DHT22;10134;50.952;6.930;2023-07-13T02:26:35;19.50;84.90
19945;DHT22;10134;50.952;6.930;2023-07-13T02:29:03;19.40;85.10
19945;DHT22;10134;50.952;6.930;2023-07-13T02:31:30;19.50;85.40
19945;DHT22;10134;50.952;6.930;2023-07-13T02:33:57;19.40;85.60
19945;DHT22;10134;50.952;6.930;2023-07-13T02:36:24;19.40;85.60
19945;DHT22;10134;50.952;6.930;2023-07-13T02:38:52;19.40;85.80
19945;DHT22;10134;50.952;6.930;2023-07-13T02:41:19;19.30;85.70
19945;DHT22;10134;50.952;6.930;2023-07-13T02:43:47;19.30;85.90
19945;DHT22;10134;50.952;6.930;2023-07-13T02:46:14;19.30;86.00
19945;DHT22;10134;50.952;6.930;2023-07-13T02:48:42;19.30;86.00
19945;DHT22;10134;50.952;6.930;2023-07-13T02:51:09;19.30;86.00
19945;DHT22;10134;50.952;6.930;2023-07-13T02:53:37;19.30;86.00
19945;DHT22;10134;50.952;6.930;2023-07-13T02:56:04;19.30;86.10
19945;DHT22;10134;50.952;6.930;2023-07-13T02:58:32;19.20;86.10
19945;DHT22;10134;50.952;6.930;2023-07-13T03:00:59;19.20;86.20
19945;DHT22;10134;50.952;6.930;2023-07-13T03:03:32;19.20;86.30
19945;DHT22;10134;50.952;6.930;2023-07-13T03:06:01;19.20;86.40
19945;DHT22;10134;50.952;6.930;2023-07-13T03:08:35;19.20;86.60
19945;DHT22;10134;50.952;6.930;2023-07-13T03:11:05;19.10;86.70
19945;DHT22;10134;50.952;6.930;2023-07-13T03:13:37;19.10;86.80
19945;DHT22;10134;50.952;6.930;2023-07-13T03:16:06;19.10;86.90
19945;DHT22;10134;50.952;6.930;2023-07-13T03:18:35;19.10;87.00
19945;DHT22;10134;50.952;6.930;2023-07-13T03:21:05;19.10;87.00
19945;DHT22;10134;50.952;6.930;2023-07-13T03:23:33;19.00;87.10
19945;DHT22;10134;50.952;6.930;2023-07-13T03:26:07;19.00;87.20
19945;DHT22;10134;50.952;6.930;2023-07-13T03:28:36;19.00;87.30
19945;DHT22;10134;50.952;6.930;2023-07-13T03:31:07;18.90;87.40
19945;DHT22;10134;50.952;6.930;2023-07-13T03:33:35;18.90;87.60
19945;DHT22;10134;50.952;6.930;2023-07-13T03:36:05;18.90;87.70
19945;DHT22;10134;50.952;6.930;2023-07-13T03:38:33;18.90;87.80
19945;DHT22;10134;50.952;6.930;2023-07-13T03:41:02;18.90;87.90
19945;DHT22;10134;50.952;6.930;2023-07-13T03:43:30;18.80;88.00
19945;DHT22;10134;50.952;6.930;2023-07-13T03:45:57;18.80;88.20
19945;DHT22;10134;50.952;6.930;2023-07-13T03:48:25;18.80;88.30
19945;DHT22;10134;50.952;6.930;2023-07-13T03:50:52;18.80;88.50
19945;DHT22;10134;50.952;6.930;2023-07-13T03:53:19;18.80;88.60
19945;DHT22;10134;50.952;6.930;2023-07-13T03:55:47;18.80;88.80
19945;DHT22;10134;50.952;6.930;2023-07-13T03:58:33;18.80;88.90
19945;DHT22;10134;50.952;6.930;2023-07-13T04:01:09;18.70;89.00
19945;DHT22;10134;50.952;6.930;2023-07-13T04:03:39;18.70;89.20
19945;DHT22;10134;50.952;6.930;2023-07-13T04:06:08;18.70;89.30
19945;DHT22;10134;50.952;6.930;2023-07-13T04:08:42;18.70;89.50
19945;DHT22;10134;50.952;6.930;2023-07-13T04:11:09;18.70;89.60
19945;DHT22;10134;50.952;6.930;2023-07-13T04:13:37;18.70;89.90
19945;DHT22;10134;50.952;6.930;2023-07-13T04:16:05;18.70;90.00
19945;DHT22;10134;50.952;6.930;2023-07-13T04:18:32;18.70;90.10
19945;DHT22;10134;50.952;6.930;2023-07-13T04:20:59;18.70;90.20
19945;DHT22;10134;50.952;6.930;2023-07-13T04:23:27;18.60;90.30
19945;DHT22;10134;50.952;6.930;2023-07-13T04:25:54;18.60;90.40
19945;DHT22;10134;50.952;6.930;2023-07-13T04:28:23;18.60;90.50
19945;DHT22;10134;50.952;6.930;2023-07-13T04:30:50;18.60;90.60
19945;DHT22;10134;50.952;6.930;2023-07-13T04:33:18;18.60;90.80
19945;DHT22;10134;50.952;6.930;2023-07-13T04:35:50;18.60;90.90
19945;DHT22;10134;50.952;6.930;2023-07-13T04:38:27;18.60;91.00
19945;DHT22;10134;50.952;6.930;2023-07-13T04:40:57;18.60;91.10
19945;DHT22;10134;50.952;6.930;2023-07-13T04:43:25;18.60;91.30
19945;DHT22;10134;50.952;6.930;2023-07-13T04:45:54;18.60;91.50
19945;DHT22;10134;50.952;6.930;2023-07-13T04:48:22;18.60;91.60
19945;DHT22;10134;50.952;6.930;2023-07-13T04:50:57;18.60;91.70
19945;DHT22;10134;50.952;6.930;2023-07-13T04:53:25;18.60;91.80
19945;DHT22;10134;50.952;6.930;2023-07-13T04:55:52;18.60;92.00
19945;DHT22;10134;50.952;6.930;2023-07-13T04:58:20;18.60;92.30
19945;DHT22;10134;50.952;6.930;2023-07-13T05:00:49;18.60;92.50
19945;DHT22;10134;50.952;6.930;2023-07-13T05:03:16;18.60;92.60
19945;DHT22;10134;50.952;6.930;2023-07-13T05:05:55;18.60;92.80
19945;DHT22;10134;50.952;6.930;2023-07-13T05:08:23;18.70;93.00
19945;DHT22;10134;50.952;6.930;2023-07-13T05:10:51;18.70;93.50
19945;DHT22;10134;50.952;6.930;2023-07-13T05:13:19;18.70;93.40
19945;DHT22;10134;50.952;6.930;2023-07-13T05:15:55;18.70;93.50
19945;DHT22;10134;50.952;6.930;2023-07-13T05:18:22;18.70;93.70
19945;DHT22;10134;50.952;6.930;2023-07-13T05:21:04;18.80;93.80
19945;DHT22;10134;50.952;6.930;2023-07-13T05:23:33;18.80;93.90
19945;DHT22;10134;50.952;6.930;2023-07-13T05:26:02;18.80;94.10
19945;DHT22;10134;50.952;6.930;2023-07-13T05:28:33;18.80;94.20
19945;DHT22;10134;50.952;6.930;2023-07-13T05:31:00;18.80;94.40
19945;DHT22;10134;50.952;6.930;2023-07-13T05:33:28;18.90;94.50
19945;DHT22;10134;50.952;6.930;2023-07-13T05:35:56;18.80;94.70
19945;DHT22;10134;50.952;6.930;2023-07-13T05:38:23;18.90;94.80
19945;DHT22;10134;50.952;6.930;2023-07-13T05:40:53;18.90;94.90
19945;DHT22;10134;50.952;6.930;2023-07-13T05:43:21;18.90;95.00
19945;DHT22;10134;50.952;6.930;2023-07-13T05:45:50;19.00;95.20
19945;DHT22;10134;50.952;6.930;2023-07-13T05:48:18;19.10;95.30
19945;DHT22;10134;50.952;6.930;2023-07-13T05:50:45;19.10;95.30
19945;DHT22;10134;50.952;6.930;2023-07-13T05:53:13;19.10;95.30
19945;DHT22;10134;50.952;6.930;2023-07-13T05:55:44;19.20;95.40
19945;DHT22;10134;50.952;6.930;2023-07-13T05:58:16;19.20;95.40
19945;DHT22;10134;50.952;6.930;2023-07-13T06:00:43;19.30;95.50
19945;DHT22;10134;50.952;6.930;2023-07-13T06:03:11;19.30;95.60
19945;DHT22;10134;50.952;6.930;2023-07-13T06:05:38;19.30;95.70
19945;DHT22;10134;50.952;6.930;2023-07-13T06:08:07;19.30;95.90
19945;DHT22;10134;50.952;6.930;2023-07-13T06:10:35;19.30;96.00
19945;DHT22;10134;50.952;6.930;2023-07-13T06:13:03;19.30;96.10
19945;DHT22;10134;50.952;6.930;2023-07-13T06:15:30;19.30;96.20
19945;DHT22;10134;50.952;6.930;2023-07-13T06:17:57;19.30;96.30
19945;DHT22;10134;50.952;6.930;2023-07-13T06:20:25;19.30;96.40
19945;DHT22;10134;50.952;6.930;2023-07-13T06:22:52;19.40;96.60
19945;DHT22;10134;50.952;6.930;2023-07-13T06:25:19;19.40;96.60
19945;DHT22;10134;50.952;6.930;2023-07-13T06:27:47;19.40;96.70
19945;DHT22;10134;50.952;6.930;2023-07-13T06:30:14;19.40;96.80
19945;DHT22;10134;50.952;6.930;2023-07-13T06:32:41;19.40;96.90
19945;DHT22;10134;50.952;6.930;2023-07-13T06:35:09;19.50;97.10
19945;DHT22;10134;50.952;6.930;2023-07-13T06:37:40;19.40;97.10
19945;DHT22;10134;50.952;6.930;2023-07-13T06:40:07;19.50;97.20
19945;DHT22;10134;50.952;6.930;2023-07-13T06:42:35;19.50;97.30
19945;DHT22;10134;50.952;6.930;2023-07-13T06:45:02;19.50;97.40
19945;DHT22;10134;50.952;6.930;2023-07-13T06:47:30;19.50;97.50
19945;DHT22;10134;50.952;6.930;2023-07-13T06:50:00;19.50;97.60
19945;DHT22;10134;50.952;6.930;2023-07-13T06:52:28;19.50;97.60
19945;DHT22;10134;50.952;6.930;2023-07-13T06:54:55;19.50;97.70
19945;DHT22;10134;50.952;6.930;2023-07-13T06:57:22;19.50;97.70
19945;DHT22;10134;50.952;6.930;2023-07-13T06:59:50;19.60;98.10
19945;DHT22;10134;50.952;6.930;2023-07-13T07:02:17;19.60;97.90
19945;DHT22;10134;50.952;6.930;2023-07-13T07:04:44;19.60;97.90
19945;DHT22;10134;50.952;6.930;2023-07-13T07:07:12;19.60;97.90
19945;DHT22;10134;50.952;6.930;2023-07-13T07:09:39;19.60;97.90
19945;DHT22;10134;50.952;6.930;2023-07-13T07:12:07;19.70;98.00
19945;DHT22;10134;50.952;6.930;2023-07-13T07:14:34;19.70;98.00
19945;DHT22;10134;50.952;6.930;2023-07-13T07:17:02;19.60;98.10
19945;DHT22;10134;50.952;6.930;2023-07-13T07:19:30;19.70;98.20
19945;DHT22;10134;50.952;6.930;2023-07-13T07:21:58;19.60;98.20
19945;DHT22;10134;50.952;6.930;2023-07-13T07:24:25;19.70;98.40
19945;DHT22;10134;50.952;6.930;2023-07-13T07:26:52;19.70;98.40
19945;DHT22;10134;50.952;6.930;2023-07-13T07:29:23;19.80;98.50
19945;DHT22;10134;50.952;6.930;2023-07-13T07:31:56;19.80;98.40
19945;DHT22;10134;50.952;6.930;2023-07-13T07:34:26;19.90;98.40
19945;DHT22;10134;50.952;6.930;2023-07-13T07:36:54;20.00;98.30
19945;DHT22;10134;50.952;6.930;2023-07-13T07:39:24;20.10;98.20
19945;DHT22;10134;50.952;6.930;2023-07-13T07:41:52;20.20;98.00
19945;DHT22;10134;50.952;6.930;2023-07-13T07:44:23;20.30;97.80
19945;DHT22;10134;50.952;6.930;2023-07-13T07:46:51;20.40;97.70
19945;DHT22;10134;50.952;6.930;2023-07-13T07:49:18;20.40;97.60
19945;DHT22;10134;50.952;6.930;2023-07-13T07:51:46;20.50;97.50
19945;DHT22;10134;50.952;6.930;2023-07-13T07:54:14;20.60;97.40
19945;DHT22;10134;50.952;6.930;2023-07-13T07:56:52;20.70;97.30
19945;DHT22;10134;50.952;6.930;2023-07-13T07:59:23;20.70;97.20
19945;DHT22;10134;50.952;6.930;2023-07-13T08:01:53;20.80;97.10
19945;DHT22;10134;50.952;6.930;2023-07-13T08:04:23;20.90;97.00
19945;DHT22;10134;50.952;6.930;2023-07-13T08:06:53;20.90;96.90
19945;DHT22;10134;50.952;6.930;2023-07-13T08:09:23;21.00;96.80
19945;DHT22;10134;50.952;6.930;2023-07-13T08:11:51;21.00;96.60
19945;DHT22;10134;50.952;6.930;2023-07-13T08:14:22;21.10;96.60
19945;DHT22;10134;50.952;6.930;2023-07-13T08:16:49;21.20;96.50
19945;DHT22;10134;50.952;6.930;2023-07-13T08:19:17;21.30;96.40
19945;DHT22;10134;50.952;6.930;2023-07-13T08:21:44;21.30;96.20
19945;DHT22;10134;50.952;6.930;2023-07-13T08:24:11;21.30;96.00
19945;DHT22;10134;50.952;6.930;2023-07-13T08:26:39;21.40;96.00
19945;DHT22;10134;50.952;6.930;2023-07-13T08:29:06;21.40;95.90
19945;DHT22;10134;50.952;6.930;2023-07-13T08:31:33;21.50;96.00
19945;DHT22;10134;50.952;6.930;2023-07-13T08:34:01;21.60;96.00
19945;DHT22;10134;50.952;6.930;2023-07-13T08:36:29;21.70;95.70
19945;DHT22;10134;50.952;6.930;2023-07-13T08:38:57;21.70;95.40
19945;DHT22;10134;50.952;6.930;2023-07-13T08:41:24;21.70;95.40
19945;DHT22;10134;50.952;6.930;2023-07-13T08:43:59;21.70;95.10
19945;DHT22;10134;50.952;6.930;2023-07-13T08:46:35;21.80;95.20
19945;DHT22;10134;50.952;6.930;2023-07-13T08:49:10;21.80;95.00
19945;DHT22;10134;50.952;6.930;2023-07-13T08:54:32;21.90;94.60
19945;DHT22;10134;50.952;6.930;2023-07-13T08:57:12;21.90;94.40
19945;DHT22;10134;50.952;6.930;2023-07-13T08:59:41;21.90;94.20
19945;DHT22;10134;50.952;6.930;2023-07-13T09:04:41;22.00;94.20
19945;DHT22;10134;50.952;6.930;2023-07-13T09:10:14;22.10;94.00
19945;DHT22;10134;50.952;6.930;2023-07-13T09:15:48;22.20;93.70
19945;DHT22;10134;50.952;6.930;2023-07-13T09:18:36;22.20;93.50
19945;DHT22;10134;50.952;6.930;2023-07-13T09:23:42;22.40;93.40
19945;DHT22;10134;50.952;6.930;2023-07-13T09:26:18;22.40;93.20
19945;DHT22;10134;50.952;6.930;2023-07-13T09:28:50;22.40;93.00
19945;DHT22;10134;50.952;6.930;2023-07-13T09:31:47;22.50;93.00
19945;DHT22;10134;50.952;6.930;2023-07-13T09:34:17;22.60;92.80
19945;DHT22;10134;50.952;6.930;2023-07-13T09:36:44;22.60;92.60
19945;DHT22;10134;50.952;6.930;2023-07-13T09:39:23;22.60;92.50
19945;DHT22;10134;50.952;6.930;2023-07-13T09:44:49;22.80;92.10
19945;DHT22;10134;50.952;6.930;2023-07-13T09:47:20;22.80;91.90
19945;DHT22;10134;50.952;6.930;2023-07-13T09:50:00;22.90;91.90
19945;DHT22;10134;50.952;6.930;2023-07-13T09:52:49;23.00;91.90
19945;DHT22;10134;50.952;6.930;2023-07-13T09:55:38;23.10;91.90
19945;DHT22;10134;50.952;6.930;2023-07-13T09:58:15;23.10;91.60
19945;DHT22;10134;50.952;6.930;2023-07-13T10:01:02;23.20;91.60
19945;DHT22;10134;50.952;6.930;2023-07-13T10:03:36;23.20;91.30
19945;DHT22;10134;50.952;6.930;2023-07-13T10:06:17;23.30;91.10
19945;DHT22;10134;50.952;6.930;2023-07-13T10:08:46;23.30;90.50
19945;DHT22;10134;50.952;6.930;2023-07-13T10:11:28;23.30;90.50
19945;DHT22;10134;50.952;6.930;2023-07-13T10:14:12;23.30;90.60
19945;DHT22;10134;50.952;6.930;2023-07-13T10:16:43;23.40;90.50
19945;DHT22;10134;50.952;6.930;2023-07-13T10:19:24;23.40;90.50
19945;DHT22;10134;50.952;6.930;2023-07-13T10:21:56;23.40;90.10
19945;DHT22;10134;50.952;6.930;2023-07-13T10:24:30;23.50;89.80
19945;DHT22;10134;50.952;6.930;2023-07-13T10:27:18;23.60;89.40
19945;DHT22;10134;50.952;6.930;2023-07-13T10:29:50;23.60;89.00
19945;DHT22;10134;50.952;6.930;2023-07-13T10:32:21;23.70;88.80
19945;DHT22;10134;50.952;6.930;2023-07-13T10:34:51;23.70;88.10
19945;DHT22;10134;50.952;6.930;2023-07-13T10:37:23;23.70;87.30
19945;DHT22;10134;50.952;6.930;2023-07-13T10:39:54;23.70;87.00
19945;DHT22;10134;50.952;6.930;2023-07-13T10:42:35;23.70;86.80
19945;DHT22;10134;50.952;6.930;2023-07-13T10:45:21;23.70;86.60
19945;DHT22;10134;50.952;6.930;2023-07-13T10:47:51;23.70;86.50
19945;DHT22;10134;50.952;6.930;2023-07-13T10:50:24;23.80;86.60
19945;DHT22;10134;50.952;6.930;2023-07-13T10:52:54;23.80;86.30
19945;DHT22;10134;50.952;6.930;2023-07-13T10:58:14;23.80;84.90
19945;DHT22;10134;50.952;6.930;2023-07-13T11:00:46;23.80;84.60
19945;DHT22;10134;50.952;6.930;2023-07-13T11:03:18;23.80;84.60
19945;DHT22;10134;50.952;6.930;2023-07-13T11:05:51;23.70;84.90
19945;DHT22;10134;50.952;6.930;2023-07-13T11:08:34;23.70;85.20
19945;DHT22;10134;50.952;6.930;2023-07-13T11:21:33;23.50;86.60
19945;DHT22;10134;50.952;6.930;2023-07-13T11:32:00;23.60;86.90
19945;DHT22;10134;50.952;6.930;2023-07-13T11:34:33;23.60;86.70
19945;DHT22;10134;50.952;6.930;2023-07-13T11:37:02;23.70;86.50
19945;DHT22;10134;50.952;6.930;2023-07-13T11:42:00;23.70;85.20
19945;DHT22;10134;50.952;6.930;2023-07-13T11:44:33;23.70;85.10
19945;DHT22;10134;50.952;6.930;2023-07-13T11:47:10;23.70;85.10
19945;DHT22;10134;50.952;6.930;2023-07-13T11:49:45;23.70;85.10
19945;DHT22;10134;50.952;6.930;2023-07-13T11:52:22;23.70;85.00
19945;DHT22;10134;50.952;6.930;2023-07-13T11:54:57;23.70;85.00
19945;DHT22;10134;50.952;6.930;2023-07-13T11:57:29;23.70;84.60
19945;DHT22;10134;50.952;6.930;2023-07-13T12:00:00;23.80;84.20
19945;DHT22;10134;50.952;6.930;2023-07-13T12:02:31;23.80;83.30
19945;DHT22;10134;50.952;6.930;2023-07-13T12:05:00;23.80;83.20
19945;DHT22;10134;50.952;6.930;2023-07-13T12:07:31;23.90;83.40
19945;DHT22;10134;50.952;6.930;2023-07-13T12:12:58;23.90;82.80
19945;DHT22;10134;50.952;6.930;2023-07-13T12:15:37;23.90;82.90
19945;DHT22;10134;50.952;6.930;2023-07-13T12:18:18;23.90;82.30
19945;DHT22;10134;50.952;6.930;2023-07-13T12:20:47;23.90;82.50
19945;DHT22;10134;50.952;6.930;2023-07-13T12:23:28;23.90;82.30
19945;DHT22;10134;50.952;6.930;2023-07-13T12:25:57;23.90;80.80
19945;DHT22;10134;50.952;6.930;2023-07-13T12:28:36;23.90;79.80
19945;DHT22;10134;50.952;6.930;2023-07-13T12:31:06;23.90;80.20
19945;DHT22;10134;50.952;6.930;2023-07-13T12:33:34;23.90;80.20
19945;DHT22;10134;50.952;6.930;2023-07-13T12:36:03;23.90;80.20
19945;DHT22;10134;50.952;6.930;2023-07-13T12:38:32;23.90;80.00
19945;DHT22;10134;50.952;6.930;2023-07-13T12:41:01;23.80;80.10
19945;DHT22;10134;50.952;6.930;2023-07-13T12:43:33;23.90;81.30
19945;DHT22;10134;50.952;6.930;2023-07-13T12:46:23;23.90;81.30
19945;DHT22;10134;50.952;6.930;2023-07-13T12:48:54;23.90;81.40
19945;DHT22;10134;50.952;6.930;2023-07-13T12:51:43;24.00;81.70
19945;DHT22;10134;50.952;6.930;2023-07-13T12:54:18;24.10;81.00
19945;DHT22;10134;50.952;6.930;2023-07-13T12:56:49;24.20;80.10
19945;DHT22;10134;50.952;6.930;2023-07-13T12:59:21;24.30;79.60
19945;DHT22;10134;50.952;6.930;2023-07-13T13:01:50;24.40;79.20
19945;DHT22;10134;50.952;6.930;2023-07-13T13:04:17;24.50;78.70
19945;DHT22;10134;50.952;6.930;2023-07-13T13:06:59;24.60;78.00
19945;DHT22;10134;50.952;6.930;2023-07-13T13:09:28;24.60;78.00
19945;DHT22;10134;50.952;6.930;2023-07-13T13:11:55;24.70;77.50
19945;DHT22;10134;50.952;6.930;2023-07-13T13:14:22;24.70;77.40
19945;DHT22;10134;50.952;6.930;2023-07-13T13:16:50;24.80;77.60
19945;DHT22;10134;50.952;6.930;2023-07-13T13:19:23;24.80;77.90
19945;DHT22;10134;50.952;6.930;2023-07-13T13:21:52;24.90;77.60
19945;DHT22;10134;50.952;6.930;2023-07-13T13:24:22;25.00;77.00
19945;DHT22;10134;50.952;6.930;2023-07-13T13:26:50;25.00;76.50
19945;DHT22;10134;50.952;6.930;2023-07-13T13:29:20;25.10;74.20
19945;DHT22;10134;50.952;6.930;2023-07-13T13:31:48;25.20;72.60
19945;DHT22;10134;50.952;6.930;2023-07-13T13:34:17;25.30;72.20
19945;DHT22;10134;50.952;6.930;2023-07-13T13:36:47;25.30;72.30
19945;DHT22;10134;50.952;6.930;2023-07-13T13:39:33;25.40;72.80
19945;DHT22;10134;50.952;6.930;2023-07-13T13:42:01;25.50;73.20
19945;DHT22;10134;50.952;6.930;2023-07-13T13:44:28;25.50;72.40
19945;DHT22;10134;50.952;6.930;2023-07-13T13:46:56;25.60;72.40
19945;DHT22;10134;50.952;6.930;2023-07-13T13:49:25;25.70;72.40
19945;DHT22;10134;50.952;6.930;2023-07-13T13:51:53;25.80;72.50
19945;DHT22;10134;50.952;6.930;2023-07-13T13:54:22;25.90;72.30
19945;DHT22;10134;50.952;6.930;2023-07-13T13:56:51;26.00;71.90
19945;DHT22;10134;50.952;6.930;2023-07-13T13:59:19;26.00;71.40
19945;DHT22;10134;50.952;6.930;2023-07-13T14:01:47;26.00;70.70
19945;DHT22;10134;50.952;6.930;2023-07-13T14:04:21;26.00;70.70
19945;DHT22;10134;50.952;6.930;2023-07-13T14:06:49;26.00;70.20
19945;DHT22;10134;50.952;6.930;2023-07-13T14:09:18;25.90;70.30
19945;DHT22;10134;50.952;6.930;2023-07-13T14:11:48;26.00;71.00
19945;DHT22;10134;50.952;6.930;2023-07-13T14:14:23;26.00;70.60
19945;DHT22;10134;50.952;6.930;2023-07-13T14:16:51;26.00;70.20
19945;DHT22;10134;50.952;6.930;2023-07-13T14:19:22;26.00;70.10
19945;DHT22;10134;50.952;6.930;2023-07-13T14:21:49;26.10;70.20
19945;DHT22;10134;50.952;6.930;2023-07-13T14:24:20;26.10;70.30
19945;DHT22;10134;50.952;6.930;2023-07-13T14:26:48;26.20;70.10
19945;DHT22;10134;50.952;6.930;2023-07-13T14:29:18;26.20;69.60
19945;DHT22;10134;50.952;6.930;2023-07-13T14:31:51;26.30;69.50
19945;DHT22;10134;50.952;6.930;2023-07-13T14:34:19;26.30;69.30
19945;DHT22;10134;50.952;6.930;2023-07-13T14:36:49;26.40;69.40
19945;DHT22;10134;50.952;6.930;2023-07-13T14:39:19;26.40;68.90
19945;DHT22;10134;50.952;6.930;2023-07-13T14:41:53;26.40;68.80
19945;DHT22;10134;50.952;6.930;2023-07-13T14:44:26;26.50;68.90
19945;DHT22;10134;50.952;6.930;2023-07-13T14:46:57;26.50;68.80
19945;DHT22;10134;50.952;6.930;2023-07-13T14:49:41;26.50;69.70
19945;DHT22;10134;50.952;6.930;2023-07-13T14:52:13;26.60;68.80
19945;DHT22;10134;50.952;6.930;2023-07-13T14:54:41;26.70;68.40
19945;DHT22;10134;50.952;6.930;2023-07-13T14:57:12;26.80;67.90
19945;DHT22;10134;50.952;6.930;2023-07-13T14:59:40;26.90;67.70
19945;DHT22;10134;50.952;6.930;2023-07-13T15:02:21;27.00;67.90
19945;DHT22;10134;50.952;6.930;2023-07-13T15:04:51;27.00;68.00
19945;DHT22;10134;50.952;6.930;2023-07-13T15:07:19;27.10;67.80
19945;DHT22;10134;50.952;6.930;2023-07-13T15:09:47;27.20;68.10
19945;DHT22;10134;50.952;6.930;2023-07-13T15:12:15;27.30;66.70
19945;DHT22;10134;50.952;6.930;2023-07-13T15:14:42;27.40;65.90
19945;DHT22;10134;50.952;6.930;2023-07-13T15:17:26;27.50;64.30
19945;DHT22;10134;50.952;6.930;2023-07-13T15:19:55;27.70;63.90
19945;DHT22;10134;50.952;6.930;2023-07-13T15:22:23;27.90;64.10
19945;DHT22;10134;50.952;6.930;2023-07-13T15:24:50;28.10;63.70
19945;DHT22;10134;50.952;6.930;2023-07-13T15:27:18;28.20;63.50
19945;DHT22;10134;50.952;6.930;2023-07-13T15:29:46;28.20;63.50
19945;DHT22;10134;50.952;6.930;2023-07-13T15:32:14;28.20;63.10
19945;DHT22;10134;50.952;6.930;2023-07-13T15:34:41;28.20;63.10
19945;DHT22;10134;50.952;6.930;2023-07-13T15:37:16;28.10;63.00
19945;DHT22;10134;50.952;6.930;2023-07-13T15:39:43;28.00;63.20
19945;DHT22;10134;50.952;6.930;2023-07-13T15:42:16;27.80;63.30
19945;DHT22;10134;50.952;6.930;2023-07-13T15:44:43;27.70;63.90
19945;DHT22;10134;50.952;6.930;2023-07-13T15:47:14;27.50;64.30
19945;DHT22;10134;50.952;6.930;2023-07-13T15:49:42;27.40;64.80
19945;DHT22;10134;50.952;6.930;2023-07-13T15:52:21;27.20;65.10
19945;DHT22;10134;50.952;6.930;2023-07-13T15:54:50;27.00;65.30
19945;DHT22;10134;50.952;6.930;2023-07-13T15:57:18;26.80;65.50
19945;DHT22;10134;50.952;6.930;2023-07-13T15:59:46;26.60;65.90
19945;DHT22;10134;50.952;6.930;2023-07-13T16:02:17;26.50;66.80
19945;DHT22;10134;50.952;6.930;2023-07-13T16:04:45;26.30;67.90
19945;DHT22;10134;50.952;6.930;2023-07-13T16:07:15;26.10;69.10
19945;DHT22;10134;50.952;6.930;2023-07-13T16:09:45;26.00;70.00
19945;DHT22;10134;50.952;6.930;2023-07-13T16:12:14;25.90;71.20
19945;DHT22;10134;50.952;6.930;2023-07-13T16:14:42;25.80;72.40
19945;DHT22;10134;50.952;6.930;2023-07-13T16:17:12;25.60;72.80
19945;DHT22;10134;50.952;6.930;2023-07-13T16:19:41;25.50;74.00
19945;DHT22;10134;50.952;6.930;2023-07-13T16:22:15;25.40;74.60
19945;DHT22;10134;50.952;6.930;2023-07-13T16:24:44;25.30;75.10
19945;DHT22;10134;50.952;6.930;2023-07-13T16:27:12;25.20;75.60
19945;DHT22;10134;50.952;6.930;2023-07-13T16:29:40;25.10;75.90
19945;DHT22;10134;50.952;6.930;2023-07-13T16:32:11;25.10;76.30
19945;DHT22;10134;50.952;6.930;2023-07-13T16:34:40;25.00;76.20